This is the latest recevied weather packets stored in our database for station/object HI3LT-13. If no packets are shown the sender has not sent any weather packets the latest 10 day(s).
| Time | Temp. | Humidity | Pressure | Rain* | Wind** | Luminosity | Snow |
|---|---|---|---|---|---|---|---|
| 1788209646 | 32.22° C | 59% | 1011 hPa | 0.76 mm | - | - | - |
| 1788209045 | 32.22° C | 59% | 1011 hPa | 0.25 mm | - | - | - |
| 1788208443 | 32.78° C | 58% | 1011 hPa | 0.25 mm | - | - | - |
| 1788207606 | 33.33° C | 56% | 1011 hPa | 0.25 mm | - | - | - |
| 1788207005 | 34.44° C | 51% | 1011 hPa | 0 mm | - | - | - |
| 1788206404 | 33.89° C | 55% | 1011 hPa | 0 mm | - | - | - |
| 1788205803 | 33.33° C | 57% | 1011 hPa | 0 mm | - | - | - |
| 1788205201 | 34.44° C | 51% | 1012 hPa | 0 mm | - | - | - |
| 1788204600 | 33.89° C | 55% | 1012 hPa | 0 mm | - | - | - |
| 1788203999 | 34.44° C | 54% | 1012 hPa | 0.51 mm | - | - | - |
| 1788203398 | 35.56° C | 48% | 1012 hPa | 0 mm | - | - | - |
| 1788202797 | 34.44° C | 55% | 1012 hPa | 0 mm | - | - | - |
| 1788202196 | 34.44° C | 55% | 1012 hPa | 0 mm | - | - | - |
| 1788201594 | 36.67° C | 51% | 1012 hPa | 0 mm | - | - | - |
| 1788201344 | 36.67° C | 51% | 1012 hPa | 0 mm | - | - | - |
| 1788200743 | 36.67° C | 51% | 1012 hPa | 0 mm | - | - | - |
| 1788200143 | 36.67° C | 51% | 1012 hPa | 0 mm | - | - | - |
| 1788199542 | 36.11° C | 51% | 1012 hPa | 0 mm | - | - | - |
| 1788198941 | 36.11° C | 51% | 1012 hPa | 0 mm | - | - | - |
| 1788198341 | 34.44° C | 55% | 1013 hPa | 0 mm | - | - | - |
| 1788197740 | 34.44° C | 55% | 1013 hPa | 0 mm | - | - | - |
| 1788197140 | 33.33° C | 56% | 1013 hPa | 0 mm | - | - | - |
| 1788196539 | 33.33° C | 56% | 1013 hPa | 0 mm | - | - | - |
| 1788195938 | 33.33° C | 56% | 1013 hPa | 0 mm | - | - | - |
| 1788195338 | 33.33° C | 58% | 1013 hPa | 0 mm | - | - | - |
* Rain latest hour (hover to see other rain measurements)
** Current wind speed in m/s (hover to see current wind gust speed)